Latest Weather Observations for Hobart Airport

IDT60901

Issued at 11:51 pm EST Saturday 1 October 2016 (issued every 10 minutes, with the page automatically refreshed every 10 minutes)

About weather observations | Map of Hobart area stations | Latest observations for Hobart area | Other Formats
Station Details ID: 094008 Name: HOBART AIRPORT Lat: -42.83 Lon: 147.50 Height: 4.0 m
Data from the previous 72 hours. | See also: Recent months at Hobart Airport
Date/Time
EST
Temp
°C
App
Temp
°C
Dew
Point
°C
Rel
Hum
%
Delta-T
°C
Wind Press
QNH
hPa
Press
MSL
hPa
Rain since
9am
mm
Dir  Spd
km/h
Gust
km/h
Spd
kts
Gust
kts
01/11:30pm 12.3 6.9 6.2 66 2.9 NW 24 30 13 16 998.1 998.1 -
01/11:00pm 12.6 6.7 5.8 63 3.2 NW 26 32 14 17 998.0 998.0 -
01/10:30pm 12.4 7.9 7.0 69 2.6 NNW 20 32 11 17 997.6 997.5 -
01/10:00pm 12.4 8.2 7.3 71 2.5 NNW 19 24 10 13 997.7 997.6 -
01/09:30pm 12.6 7.0 7.0 68 2.7 NW 26 33 14 18 997.4 997.3 -
01/09:00pm 12.6 7.7 7.0 68 2.7 NW 22 30 12 16 997.1 997.1 1.0
01/08:30pm 12.1 7.7 7.4 73 2.3 NW 20 30 11 16 996.6 996.6 -
01/08:00pm 12.1 8.4 8.1 76 2.0 NNW 17 24 9 13 996.2 996.2 -
01/07:30pm 12.2 9.1 8.8 80 1.7 NNW 15 20 8 11 995.8 995.8 -
01/07:00pm 13.0 8.6 7.3 68 2.8 NW 20 28 11 15 995.2 995.2 -
01/06:30pm 13.1 10.2 8.1 71 2.5 NNW 13 19 7 10 994.9 994.9 -
01/06:00pm 13.3 9.9 7.7 69 2.8 NW 15 19 8 10 994.3 994.3 -
01/05:30pm 12.9 9.5 9.2 78 1.9 NNW 17 24 9 13 993.7 993.7 -
01/05:00pm 13.1 8.4 9.2 77 2.0 NW 24 30 13 16 993.0 993.0 -
01/04:30pm 12.9 7.4 9.2 78 1.9 WNW 28 57 15 31 992.6 992.6 -
01/04:21pm 14.1 8.5 8.8 70 2.7 NNW 28 48 15 26 992.2 992.2 -
01/04:00pm 16.1 11.8 7.8 58 4.2 NNW 20 30 11 16 991.8 991.8 -
01/03:30pm 17.0 12.8 8.3 56 4.4 NNW 20 35 11 19 991.4 991.4 -
01/03:00pm 16.3 12.1 7.4 55 4.5 NW 19 24 10 13 991.3 991.3 1.0
01/02:30pm 16.8 13.8 9.2 61 3.9 NNW 15 22 8 12 991.5 991.5 -
01/02:00pm 15.5 13.4 8.2 62 3.7 N 9 - 5 - 991.5 991.5 -
01/01:30pm 15.4 11.8 8.4 63 3.5 N 17 26 9 14 991.5 991.5 1.2
01/01:00pm 14.4 10.5 8.7 68 2.9 N 19 30 10 16 991.8 991.8 1.2
01/12:30pm 13.2 10.9 8.9 75 2.2 N 11 15 6 8 992.3 992.3 1.2
01/12:00pm 11.5 9.6 9.1 85 1.2 NNW 9 13 5 7 992.6 992.6 1.2
01/11:30am 11.1 9.5 8.7 85 1.2 NNW 7 7 4 4 992.8 992.8 1.2
01/11:00am 10.4 9.0 8.8 90 0.8 NW 6 7 3 4 993.1 993.1 1.2
01/10:30am 10.3 8.6 8.3 87 1.0 NW 7 9 4 5 993.5 993.5 0.8
01/10:00am 10.1 8.6 8.3 88 0.9 NNW 6 7 3 4 993.7 993.7 0.8
01/09:30am 9.7 7.9 8.1 90 0.8 NNW 7 9 4 5 993.8 993.9 0.4
01/09:00am 9.8 7.6 7.7 87 1.0 N 9 13 5 7 994.0 994.1 2.8
01/08:30am 9.5 8.9 7.4 87 1.0 CALM 0 0 0 0 994.1 994.2 2.4
01/08:00am 9.3 8.7 7.4 88 0.9 CALM 0 0 0 0 994.1 994.2 1.6
01/07:30am 9.2 7.3 7.7 90 0.7 N 7 9 4 5 994.0 994.1 1.0
01/07:00am 9.6 8.0 6.2 79 1.6 NNW 4 9 2 5 993.9 994.0 0.2
01/06:30am 8.9 7.8 5.2 77 1.7 CALM 0 0 0 0 993.7 993.8 0.2
01/06:00am 7.3 6.1 4.6 83 1.2 CALM 0 7 0 4 993.5 993.6 0.2
01/05:30am 6.2 3.6 4.4 88 0.8 SW 7 9 4 5 993.2 993.3 0.2
01/05:00am 7.1 4.1 4.1 81 1.3 S 9 11 5 6 992.8 992.9 0.2
01/04:30am 8.8 5.8 4.1 72 2.1 N 9 15 5 8 992.6 992.7 0.2
01/04:00am 8.4 4.3 4.3 75 1.8 NNW 15 19 8 10 992.4 992.5 0.2
01/03:30am 8.3 4.5 4.0 74 1.9 N 13 17 7 9 992.4 992.5 0.2
01/03:00am 8.6 4.0 3.6 71 2.2 NW 17 20 9 11 992.6 992.7 0.2
01/02:30am 8.1 5.6 3.5 73 2.0 SW 6 9 3 5 993.0 993.1 0.2
01/02:00am 8.8 5.7 3.5 69 2.3 NW 9 13 5 7 993.1 993.2 0.2
01/01:30am 8.9 4.0 3.9 71 2.2 N 19 28 10 15 992.9 993.0 0.2
01/01:00am 9.5 4.4 3.3 65 2.7 N 19 28 10 15 993.2 993.3 0.2
01/12:30am 9.8 3.4 3.2 63 2.9 NNE 26 39 14 21 993.0 993.1 0.2
01/12:00am 9.8 4.2 3.2 63 2.9 N 22 33 12 18 993.2 993.3 0.2
 
Date/Time
EST
Temp
°C
App
Temp
°C
Dew
Point
°C
Rel
Hum
%
Delta-T
°C
Wind Press
QNH
hPa
Press
MSL
hPa
Rain since
9am
mm
Dir  Spd
km/h
Gust
km/h
Spd
kts
Gust
kts
30/11:30pm 9.7 4.6 3.3 64 2.8 N 19 26 10 14 993.3 993.4 0.2
30/11:00pm 10.1 3.7 3.0 61 3.1 NNE 26 39 14 21 993.3 993.4 0.2
30/10:30pm 10.2 3.9 3.9 65 2.8 NNE 26 33 14 18 993.2 993.3 0.2
30/10:00pm 10.3 4.5 4.3 66 2.7 N 24 33 13 18 993.4 993.5 0.2
30/09:30pm 10.8 5.3 3.9 62 3.1 NNE 22 32 12 17 993.4 993.5 0.2
30/09:00pm 11.1 5.2 3.7 60 3.3 NNE 24 35 13 19 993.3 993.4 0.2
30/08:30pm 11.1 5.2 3.7 60 3.3 NNE 24 35 13 19 993.0 993.1 0.2
30/08:00pm 11.2 4.5 3.9 61 3.3 NNE 28 41 15 22 992.8 992.9 0.2
30/07:30pm 11.4 4.7 3.6 58 3.5 NNE 28 39 15 21 992.5 992.6 0.2
30/07:00pm 11.5 5.9 3.7 58 3.5 N 22 32 12 17 992.0 992.1 0.2
30/06:30pm 11.9 4.8 3.7 57 3.7 NNE 30 50 16 27 991.3 991.3 0.2
30/06:00pm 12.6 4.5 3.3 53 4.2 NNE 35 54 19 29 990.5 990.5 0.2
30/05:42pm 13.3 6.1 2.8 49 4.6 NNE 30 48 16 26 990.1 990.1 0.2
30/05:30pm 13.4 5.6 3.0 49 4.6 NNE 33 48 18 26 989.7 989.7 0.2
30/05:00pm 13.9 6.8 3.4 49 4.8 NNE 30 41 16 22 989.1 989.1 0.2
30/04:30pm 14.3 6.8 3.4 48 4.9 N 32 44 17 24 988.5 988.5 0.2
30/04:00pm 14.3 7.5 3.1 47 5.1 N 28 37 15 20 988.1 988.1 0.2
30/03:30pm 14.3 8.1 4.5 51 4.5 N 26 37 14 20 987.8 987.8 0.2
30/03:00pm 14.9 9.3 7.3 60 3.8 N 26 37 14 20 987.5 987.5 0.2
30/02:30pm 13.7 8.3 6.3 61 3.5 N 24 35 13 19 987.5 987.5 0.2
30/02:00pm 13.8 8.4 7.8 67 3.0 N 26 39 14 21 987.4 987.4 0.2
30/01:30pm 13.1 9.9 8.6 74 2.3 NNW 15 28 8 15 987.2 987.2 0.2
30/01:00pm 13.0 8.7 9.3 78 1.9 NE 22 30 12 16 987.0 987.0 0.2
30/12:46pm 13.1 10.1 10.8 86 1.2 E 17 28 9 15 986.6 986.6 0.2
30/12:30pm 13.1 9.6 10.2 82 1.5 SE 19 28 10 15 986.6 986.6 0.2
30/12:00pm 13.8 9.5 10.8 82 1.6 SE 24 33 13 18 986.4 986.4 0.2
30/11:30am 13.6 8.2 11.0 84 1.4 SE 30 44 16 24 986.5 986.5 0.2
30/11:19am 13.6 7.7 11.0 84 1.4 SE 33 46 18 25 986.6 986.6 0.2
30/11:00am 13.7 8.2 10.5 81 1.7 SE 30 41 16 22 987.4 987.4 0.2
30/10:30am 13.9 9.8 10.1 78 2.0 SE 22 41 12 22 988.0 988.0 0.2
30/10:00am 13.9 8.7 10.3 79 1.9 ESE 28 48 15 26 988.5 988.5 0.2
30/09:30am 13.9 9.6 10.9 82 1.6 ESE 24 43 13 23 988.7 988.7 0.2
30/09:11am 13.7 8.7 10.9 83 1.5 ESE 28 59 15 32 988.6 988.6 0.0
30/09:00am 13.5 9.0 11.3 86 1.2 ESE 26 48 14 26 988.7 988.7 24.6
30/08:41am 13.3 8.4 11.2 87 1.1 ESE 28 50 15 27 988.8 988.8 24.4
30/08:38am 13.3 8.7 11.2 87 1.1 ESE 26 50 14 27 988.6 988.6 24.4
30/08:30am 13.2 8.3 11.3 88 1.0 ESE 28 41 15 22 988.7 988.7 24.0
30/08:11am 12.4 7.2 11.5 94 0.5 SE 30 48 16 26 989.1 989.1 23.0
30/08:00am 12.1 6.8 11.2 94 0.5 SE 30 44 16 24 989.4 989.4 22.4
30/07:30am 12.1 6.4 11.0 93 0.6 SE 32 50 17 27 989.9 989.9 19.0
30/07:20am 12.2 7.6 10.9 92 0.7 SE 26 41 14 22 990.0 990.0 18.2
30/07:00am 12.3 8.0 10.8 90 0.8 SE 24 35 13 19 990.8 990.8 16.2
30/06:30am 12.6 8.7 10.9 89 0.9 ESE 22 37 12 20 990.8 990.8 15.2
30/06:00am 12.6 8.6 10.5 87 1.1 ESE 22 41 12 22 990.9 990.9 15.0
30/05:30am 12.5 9.0 10.8 89 0.9 ESE 20 32 11 17 990.9 990.9 14.4
30/05:14am 12.6 8.2 10.3 86 1.2 ESE 24 39 13 21 991.0 991.0 14.2
30/05:00am 12.1 8.8 10.8 92 0.7 ESE 19 41 10 22 991.2 991.2 13.8
30/04:30am 12.3 8.7 9.8 85 1.3 E 19 37 10 20 991.1 991.1 12.8
30/04:24am 12.6 8.0 9.5 81 1.6 E 24 37 13 20 991.1 991.1 12.8
30/04:00am 13.0 8.7 10.7 86 1.2 ESE 24 39 13 21 990.5 990.5 12.8
30/03:43am 12.8 9.6 11.1 89 0.9 E 19 30 10 16 991.2 991.2 12.6
30/03:30am 12.7 9.3 11.2 91 0.8 E 20 33 11 18 991.2 991.2 12.6
30/03:00am 12.8 8.6 11.1 89 0.9 E 24 41 13 22 991.4 991.4 11.0
30/02:49am 12.9 9.7 11.2 89 0.9 E 19 32 10 17 991.7 991.8 10.6
30/02:31am 12.7 10.0 11.6 93 0.6 E 17 37 9 20 991.9 992.0 10.0
30/02:30am 12.7 10.4 11.6 93 0.6 E 15 26 8 14 991.9 992.0 9.8
30/02:00am 12.6 10.2 11.3 92 0.7 E 15 30 8 16 992.2 992.3 6.0
30/01:41am 12.7 9.9 11.2 91 0.8 E 17 28 9 15 992.6 992.7 5.2
30/01:30am 12.7 9.5 11.2 91 0.8 E 19 32 10 17 992.8 992.9 5.0
30/01:14am 12.8 10.3 11.1 89 0.9 E 15 28 8 15 993.0 993.1 4.4
30/01:00am 12.8 10.3 10.9 88 1.0 E 15 28 8 15 993.1 993.2 4.2
30/12:30am 12.7 10.5 10.8 88 1.0 E 13 17 7 9 993.3 993.4 3.0
30/12:00am 12.6 11.1 10.7 88 1.0 SSE 9 11 5 6 993.4 993.5 2.8
 
Date/Time
EST
Temp
°C
App
Temp
°C
Dew
Point
°C
Rel
Hum
%
Delta-T
°C
Wind Press
QNH
hPa
Press
MSL
hPa
Rain since
9am
mm
Dir  Spd
km/h
Gust
km/h
Spd
kts
Gust
kts
29/11:30pm 12.8 10.6 10.9 88 1.0 E 13 19 7 10 993.7 993.8 2.2
29/11:00pm 12.9 10.2 10.4 85 1.3 E 15 26 8 14 993.7 993.8 2.0
29/10:30pm 12.8 9.4 10.7 87 1.1 ESE 19 28 10 15 993.7 993.8 2.0
29/10:00pm 13.1 10.2 9.8 80 1.7 E 15 26 8 14 994.1 994.2 2.0
29/09:30pm 12.8 9.6 10.1 84 1.4 E 17 30 9 16 994.3 994.4 1.8
29/09:00pm 12.7 9.0 10.0 84 1.4 E 20 32 11 17 994.2 994.3 1.8
29/08:30pm 12.8 8.6 9.9 82 1.5 E 22 33 12 18 994.1 994.2 1.8
29/08:00pm 12.4 8.4 10.3 87 1.1 E 22 37 12 20 994.2 994.3 1.6
29/07:30pm 12.6 8.5 10.1 85 1.3 E 22 35 12 19 994.0 994.1 1.2
29/07:25pm 12.6 8.5 10.1 85 1.3 E 22 35 12 19 994.0 994.1 1.0
29/07:00pm 12.6 9.0 9.9 83 1.4 E 19 33 10 18 994.2 994.3 0.8
29/06:30pm 12.5 8.4 10.0 85 1.3 E 22 37 12 20 994.1 994.2 0.8
29/06:00pm 13.3 9.6 10.0 80 1.7 ENE 20 33 11 18 994.6 994.7 0.2
29/05:30pm 13.4 9.1 10.6 83 1.5 ENE 24 46 13 25 994.3 994.4 0.0
29/05:00pm 14.0 8.8 10.2 78 2.0 ENE 28 44 15 24 994.1 994.2 0.0
29/04:31pm 14.3 9.0 9.9 75 2.3 ENE 28 46 15 25 993.8 993.9 0.0
29/04:30pm 14.3 9.1 10.1 76 2.2 ENE 28 44 15 24 993.8 993.9 0.0
29/04:04pm 14.5 8.4 9.9 74 2.4 ENE 32 52 17 28 993.6 993.7 0.0
29/04:00pm 14.6 8.3 9.8 73 2.5 ENE 33 48 18 26 993.6 993.7 0.0
29/03:30pm 14.6 8.0 10.0 74 2.4 ENE 35 56 19 30 993.6 993.7 0.0
29/03:00pm 14.8 8.5 9.8 72 2.6 ENE 33 56 18 30 993.6 993.7 0.0
29/02:30pm 14.6 7.7 10.2 75 2.3 ENE 37 59 20 32 994.1 994.2 0.0
29/02:00pm 14.5 7.7 10.5 77 2.1 ENE 37 61 20 33 994.3 994.4 0.0
29/01:30pm 14.9 7.5 9.7 71 2.7 NE 39 59 21 32 994.2 994.3 0.0
29/01:00pm 14.7 7.0 10.3 75 2.3 NE 41 61 22 33 994.3 994.4 0.0
29/12:30pm 15.0 8.2 10.5 74 2.4 ENE 37 56 20 30 994.6 994.7 0.0
29/12:00pm 15.5 9.1 10.8 73 2.5 NE 35 54 19 29 995.2 995.3 0.0
29/11:43am 15.3 8.5 10.6 73 2.5 NE 37 56 20 30 995.6 995.7 0.0
29/11:30am 15.2 8.4 10.7 74 2.4 NE 37 52 20 28 995.8 995.9 0.0
29/11:00am 14.9 9.0 10.6 75 2.3 NE 32 50 17 27 996.2 996.3 0.0
29/10:30am 15.0 9.5 10.7 75 2.3 NE 30 50 16 27 996.4 996.5 0.0
29/10:02am 15.1 8.2 10.4 73 2.5 NE 37 56 20 30 996.8 996.9 0.0
29/10:00am 14.9 7.8 10.8 76 2.2 NE 39 56 21 30 996.9 997.0 0.0
29/09:32am 14.9 8.9 10.2 73 2.5 NE 32 50 17 27 997.0 997.1 0.0
29/09:30am 14.8 8.9 10.5 75 2.3 NE 32 46 17 25 997.1 997.2 0.0
29/09:04am 15.4 9.9 9.0 65 3.3 NE 28 46 15 25 997.7 997.7 0.0
29/09:00am 15.4 10.6 9.0 65 3.3 NE 24 33 13 18 997.7 997.7 0.0
29/08:33am 15.3 9.8 9.3 67 3.1 NE 28 48 15 26 998.0 998.0 0.0
29/08:30am 15.3 10.2 9.1 66 3.2 NE 26 37 14 20 998.0 998.0 0.0
29/08:00am 14.5 9.1 9.5 72 2.6 NE 28 43 15 23 998.2 998.2 0.0
29/07:30am 14.3 9.9 9.0 70 2.7 NE 22 30 12 16 998.5 998.5 0.0
29/07:00am 14.1 10.1 9.2 72 2.5 NE 20 28 11 15 998.6 998.6 0.0
29/06:30am 13.6 10.6 9.3 75 2.2 NNE 15 24 8 13 999.1 999.1 0.0
29/06:00am 12.7 9.6 8.9 78 1.9 NE 15 28 8 15 999.4 999.4 0.0
29/05:30am 11.3 9.5 8.0 80 1.6 N 7 17 4 9 999.7 999.7 0.0
29/05:00am 10.5 9.2 7.6 82 1.4 SW 4 9 2 5 1000.0 1000.0 0.0
29/04:30am 10.1 8.2 6.5 78 1.7 SSW 6 9 3 5 1000.3 1000.3 0.0
29/04:00am 9.1 7.0 5.8 80 1.5 W 6 9 3 5 1000.9 1000.9 0.0
29/03:30am 8.9 7.5 5.6 80 1.5 NNW 2 9 1 5 1001.2 1001.2 0.0
29/03:00am 9.8 7.7 5.9 77 1.8 NE 6 9 3 5 1001.7 1001.7 0.0
29/02:30am 10.2 7.5 5.7 73 2.1 N 9 15 5 8 1002.2 1002.2 0.0
29/02:00am 9.1 7.1 6.1 81 1.4 N 6 11 3 6 1002.9 1002.9 0.0
29/01:30am 8.9 5.9 6.1 82 1.3 N 11 11 6 6 1003.5 1003.5 0.0
29/01:00am 10.0 6.9 7.3 83 1.3 N 13 17 7 9 1003.6 1003.6 0.0
29/12:30am 10.4 7.7 7.5 82 1.4 NNE 11 15 6 8 1003.7 1003.7 0.0
29/12:00am 11.0 8.0 7.9 81 1.5 N 13 17 7 9 1004.0 1004.0 0.0

Latest Capital City Observations: Canberra | Sydney | Melbourne | Brisbane | Adelaide | Perth | Hobart | Darwin

Other Formats:

Comma delimited format used in spreadsheet applications
http://www.bom.gov.au/fwo/IDT60901/IDT60901.94975.axf

JavaScript Object Notation format (JSON) in row-major order
http://www.bom.gov.au/fwo/IDT60901/IDT60901.94975.json